Forside
METAR-TAF:

METAR-TAF

Lufthavne :

Muscatine, Iowa, USA

Breddekreds: 41-22N, længdekreds: 091-09W, højde: 167 m

Aktuelle vejr

Denne rapport blev lavet for 18 minutter siden, kl. 12:15 UTC
Vind 3 kt fra nordvest
Temperatur 16°C
Fugtighed 100%
Tryk 1019 hPa
Sigt: 14.5 km
skyfri

METAR: KMUT 121215Z AUTO 31003KT 9SM CLR 16/16 A3009 RMK AO2

Tid: 07:33 (12:33 UTC)


TAF: fraværende

Vejrobservationer og prognoser fra mere end 4000 lufthavne (METAR og TAF).

De gule og røde prikker repræsenterer de meteorologiske stationer.

Flyt musen over at se navnet på stationen.

Så klik over at se vejr observationer og prognoser.

At skifte det kort: Klik på de grønne knapper med et sort kors for at zoome ind; på den grønne knap med en bindestreg for at zoome ud; eller på de grønne pile for tilstødende kort.


METAR-TAF: